Etusivu
METAR-TAF:

METAR-TAF

Lentoasemat :

Waseca Municipal Airport

Waseca, Minnesota, Yhdysvallat

Leveyspiiri: 44-04-24N, Pituuspiiri: 093-33-11W, korkeus merenpinnasta: 343 m

Tämänhetkinen sää

Tämä raportti tehtiin 6 minuuttia sitten, kello 03.55 UTC
tyyntä
Lämpötila 2°C
Kosteus 75%
Ilmanpaine 1029 hPa
Näkyvyys: 16.1 km
selkeää

METAR: KACQ 260355Z AUTO 00000KT 10SM CLR 02/M02 A3038 RMK AO2

Aika: 23:01 (04:01 UTC)


TAF: puuttuu

Säähavainnot ja -ennusteet yli 4000 lentoasemalta (METAR- ja TAF-raportit).

Käytössä olevat sääasemat on merkitty karttaan keltaisilla ja punaisilla pisteillä.

Aseta hiiri pisteen päälle nähdäksesi sääaseman nimen.

Klikkaa sitten nähdäksesi säähavainnot ja -ennusteet.

Kartan vaihtaminen: klikkaa mustalla rastilla varustettuja vihreitä pisteitä, niin voit zoomata sisään; viivalla varustettua vihreää pistettä, niin voit zoomata ulos tai vihreitä nuolia, niin pääset viereisille kartoille.


METAR-TAF: